Bellemont, AZ

11:55 PM MST on August 28, 2014 (GMT -0700)
MesoWest Bellemont NWS AZ US FGZWFO | Change Station
CLOSE
Current Station
Personal Weather Station
Location: Bellemont, AZ
Elevation: 7151 ft
Nearby Weather Stations

Elev 7151 ft 35.23 °N, 111.82 °W | Updated 616 days ago

Clear
Clear
48 °F
Feels Like 48 °F
N
0
Wind Variable Wind from West
Gusts 2 mph

Today
High -- | Low -- °F
--% Chance of Precip.
Yesterday
High -- | Low -- °F
Precip. -- in
5:56 AM 6:59 PM
Waxing Crescent, 12% visible
Pressure 30.05 in
Visibility 10.0 miles
Clouds Clear
Dew Point 43 °F
Humidity 82%
Rainfall 0.00 in
Snow Depth 0 in
UV 0 out of 12
Pollen 6.50 out of 12
Air Quality Not available.
Flu Activity Not available.
METAR KFLG 290557Z AUTO 00000KT 10SM CLR 11/06 A3032 RMK AO2 SLP174 T01060056 10239 20100 50004 TSNO

More Conditions Fewer Conditions

Pressure 30.05 in
Visibility 10.0 miles
Clouds Clear
Dew Point 43 °F
Humidity 82%
Rainfall 0.00 in
Snow Depth 0 in
UV 0 out of 12
Pollen 6.50 out of 12
Air Quality Not available.
Flu Activity Not available.
METAR KFLG 290557Z AUTO 00000KT 10SM CLR 11/06 A3032 RMK AO2 SLP174 T01060056 10239 20100 50004 TSNO

More Conditions Fewer Conditions

10-Day Weather Forecast

Almanac

Astronomy

Aug. 28, 2014 Rise Set
Actual Time 5:56 AM MST 6:59 PM MST
Civil Twilight 5:30 AM MST 7:25 PM MST
Nautical Twilight 4:59 AM MST 7:56 PM MST
Astronomical Twilight 4:27 AM MST 8:28 PM MST
Moon 8:44 AM MST (8/28) 8:34 PM MST (8/28)
Length of Visible Light 13h 54m
Length of Day
13h 02m
Tomorrow will be 2m 6s shorter.
Waxing Crescent, 12% of the Moon is Illuminated
Aug 29
Waxing Crescent
Sep 2
First Quarter
Sep 8
Full
Sep 15
Last Quarter
Sep 24
New

Community

WunderPhotos

Upload Photos

1,748,197 photos uploaded!

Nearby

Snow Depth

Station Depth Elevation
White Horse Lake 0 in 7180 ft
Mormon Mountain 0 in 7500 ft
Snowslide Canyon 0 in 9730 ft
Promontory 0 in 7930 ft
Workman Creek 1 in 6900 ft

Earthquake Activity

City Distance Mag. Time & Date
No recent earthquake activity has been reported nearby.
Minimum magnitude displayed is 2.5.

Coastal Water Temperatures

Place Temperature
No Stations Reporting

Nearby Weather Stations